createdAt,value
2023-05-06T00:00:40.476Z,1019.39
2023-05-06T00:01:40.455Z,1019.41
2023-05-06T00:02:40.480Z,1019.40
2023-05-06T00:03:40.515Z,1019.41
2023-05-06T00:04:40.451Z,1019.40
2023-05-06T00:05:40.410Z,1019.42
2023-05-06T00:06:40.386Z,1019.37
2023-05-06T00:07:40.417Z,1019.34
2023-05-06T00:08:40.387Z,1019.36
2023-05-06T00:09:40.355Z,1019.32
2023-05-06T00:10:40.345Z,1019.30
2023-05-06T00:11:40.332Z,1019.29
2023-05-06T00:12:40.355Z,1019.30
2023-05-06T00:13:40.299Z,1019.32
2023-05-06T00:14:40.302Z,1019.32
2023-05-06T00:15:40.290Z,1019.28
2023-05-06T00:16:40.385Z,1019.27
2023-05-06T00:17:40.290Z,1019.30
2023-05-06T00:19:56.379Z,1019.29
2023-05-06T00:20:57.338Z,1019.29
2023-05-06T00:21:57.333Z,1019.32
2023-05-06T00:22:57.333Z,1019.35
2023-05-06T00:23:57.301Z,1019.39
2023-05-06T00:24:57.307Z,1019.40
2023-05-06T00:25:57.282Z,1019.40
2023-05-06T00:26:57.257Z,1019.40
2023-05-06T00:27:57.311Z,1019.37
2023-05-06T00:28:57.241Z,1019.38
2023-05-06T00:29:57.228Z,1019.34
2023-05-06T00:30:57.212Z,1019.34
2023-05-06T00:31:57.636Z,1019.28
2023-05-06T00:32:57.275Z,1019.30
2023-05-06T00:33:57.187Z,1019.34
2023-05-06T00:34:57.157Z,1019.31
2023-05-06T00:35:57.164Z,1019.27
2023-05-06T00:36:57.167Z,1019.27
2023-05-06T00:37:57.131Z,1019.24
2023-05-06T00:38:57.104Z,1019.21
2023-05-06T00:39:57.110Z,1019.24
2023-05-06T00:40:57.096Z,1019.24
2023-05-06T00:41:57.076Z,1019.27
2023-05-06T00:42:57.048Z,1019.25
2023-05-06T00:43:57.038Z,1019.24
2023-05-06T00:44:57.019Z,1019.20
2023-05-06T00:45:57.132Z,1019.13
2023-05-06T00:46:57.006Z,1019.20
2023-05-06T00:47:57.021Z,1019.14
2023-05-06T00:48:56.962Z,1019.07
2023-05-06T00:49:56.979Z,1019.12
2023-05-06T00:50:56.985Z,1019.13
2023-05-06T00:51:56.927Z,1019.17
2023-05-06T00:52:56.915Z,1019.20
2023-05-06T00:53:56.911Z,1019.22
2023-05-06T00:54:56.949Z,1019.21
2023-05-06T00:55:56.880Z,1019.20
2023-05-06T00:56:56.871Z,1019.21
2023-05-06T00:57:56.852Z,1019.23
2023-05-06T00:58:56.829Z,1019.21
2023-05-06T00:59:56.837Z,1019.27
2023-05-06T01:00:56.838Z,1019.22
2023-05-06T01:01:56.805Z,1019.25
2023-05-06T01:02:56.866Z,1019.21
2023-05-06T01:03:56.963Z,1019.24
2023-05-06T01:04:56.841Z,1019.25
2023-05-06T01:05:56.820Z,1019.21
2023-05-06T01:06:56.772Z,1019.18
2023-05-06T01:07:56.726Z,1019.16
2023-05-06T01:08:56.698Z,1019.19
2023-05-06T01:09:56.736Z,1019.18
2023-05-06T01:10:56.704Z,1019.15
2023-05-06T01:11:56.690Z,1019.13
2023-05-06T01:12:56.697Z,1019.09
2023-05-06T01:13:56.651Z,1019.09
2023-05-06T01:14:56.675Z,1019.06
2023-05-06T01:15:56.641Z,1019.08
2023-05-06T01:16:56.648Z,1019.09
2023-05-06T01:17:56.687Z,1019.06
2023-05-06T01:18:56.636Z,1019.11
2023-05-06T01:19:56.587Z,1019.14
2023-05-06T01:20:56.541Z,1019.09
2023-05-06T01:21:56.530Z,1019.17
2023-05-06T01:22:56.575Z,1019.12
2023-05-06T01:23:56.560Z,1019.12
2023-05-06T01:24:56.496Z,1019.15
2023-05-06T01:25:56.507Z,1019.19
2023-05-06T01:26:56.474Z,1019.15
2023-05-06T01:27:56.481Z,1019.20
2023-05-06T01:28:56.486Z,1019.16
2023-05-06T01:29:56.468Z,1019.19
2023-05-06T01:30:56.538Z,1019.18
2023-05-06T01:31:56.410Z,1019.23
2023-05-06T01:32:56.390Z,1019.20
2023-05-06T01:33:56.416Z,1019.21
2023-05-06T01:34:56.353Z,1019.18
2023-05-06T01:35:56.364Z,1019.19
2023-05-06T01:36:56.380Z,1019.18
2023-05-06T01:37:56.333Z,1019.19
2023-05-06T01:38:56.360Z,1019.16
2023-05-06T01:39:56.304Z,1019.18
2023-05-06T01:40:56.288Z,1019.18
2023-05-06T01:41:56.293Z,1019.14
2023-05-06T01:42:56.257Z,1019.14
2023-05-06T01:43:56.269Z,1019.17
2023-05-06T01:44:56.227Z,1019.15
2023-05-06T01:45:56.235Z,1019.11
2023-05-06T01:46:56.205Z,1019.08
2023-05-06T01:47:56.248Z,1019.03
2023-05-06T01:48:56.181Z,1019.06
2023-05-06T01:49:56.181Z,1019.01
2023-05-06T01:50:56.152Z,1019.04
2023-05-06T01:51:56.156Z,1019.06
2023-05-06T01:52:56.128Z,1019.02
2023-05-06T01:53:56.110Z,1019.01
2023-05-06T01:54:56.104Z,1019.01
2023-05-06T01:55:56.138Z,1018.99
2023-05-06T01:56:56.143Z,1019.00
2023-05-06T01:57:56.056Z,1019.01
2023-05-06T01:58:56.042Z,1019.04
2023-05-06T01:59:56.046Z,1019.05
2023-05-06T02:00:56.031Z,1019.03
2023-05-06T02:01:56.077Z,1019.05
2023-05-06T02:02:56.146Z,1019.08
2023-05-06T02:03:56.226Z,1019.00
2023-05-06T02:04:55.982Z,1019.05
2023-05-06T02:05:55.956Z,1019.04
2023-05-06T02:06:55.943Z,1019.00
2023-05-06T02:07:55.943Z,1019.04
2023-05-06T02:08:55.919Z,1019.04
2023-05-06T02:09:55.927Z,1019.07
2023-05-06T02:10:55.924Z,1019.08
2023-05-06T02:11:55.875Z,1019.06
2023-05-06T02:12:55.905Z,1019.07
2023-05-06T02:13:55.856Z,1019.12
2023-05-06T02:14:55.857Z,1019.06
2023-05-06T02:15:55.914Z,1019.04
2023-05-06T02:16:55.803Z,1019.07
2023-05-06T02:17:55.854Z,1019.05
2023-05-06T02:18:55.819Z,1019.08
2023-05-06T02:19:55.773Z,1019.06
2023-05-06T02:20:55.758Z,1019.04
2023-05-06T02:21:55.760Z,1019.01
2023-05-06T02:22:55.769Z,1018.98
2023-05-06T02:23:55.731Z,1018.99
2023-05-06T02:24:55.699Z,1018.99
2023-05-06T02:25:55.692Z,1018.97
2023-05-06T02:26:55.679Z,1019.01
2023-05-06T02:27:55.671Z,1018.99
2023-05-06T02:28:55.663Z,1018.99
2023-05-06T02:29:55.664Z,1018.97
2023-05-06T02:30:55.628Z,1018.94
2023-05-06T02:31:55.633Z,1018.94
2023-05-06T02:32:55.639Z,1018.93
2023-05-06T02:33:55.615Z,1018.91
2023-05-06T02:34:55.568Z,1018.93
2023-05-06T02:35:55.573Z,1018.91
2023-05-06T02:36:55.556Z,1018.96
2023-05-06T02:37:55.558Z,1018.96
2023-05-06T02:38:55.514Z,1019.00
2023-05-06T02:39:55.506Z,1018.98
2023-05-06T02:40:55.524Z,1018.99
2023-05-06T02:41:55.503Z,1018.95
2023-05-06T02:42:55.524Z,1018.97
2023-05-06T02:43:55.458Z,1018.92
2023-05-06T02:44:55.439Z,1018.95
2023-05-06T02:45:55.517Z,1018.91
2023-05-06T02:46:55.425Z,1018.91
2023-05-06T02:47:55.433Z,1018.91
2023-05-06T02:48:55.382Z,1018.88
2023-05-06T02:49:55.387Z,1018.87
2023-05-06T02:50:55.357Z,1018.88
2023-05-06T02:51:55.568Z,1018.88
2023-05-06T02:52:55.505Z,1018.89
2023-05-06T02:53:55.329Z,1018.93
2023-05-06T02:54:55.315Z,1018.96
2023-05-06T02:55:55.408Z,1018.97
2023-05-06T02:56:55.292Z,1018.93
2023-05-06T02:57:55.276Z,1018.94
2023-05-06T02:58:55.249Z,1018.93
2023-05-06T02:59:55.256Z,1018.92
2023-05-06T03:00:55.262Z,1018.94
2023-05-06T03:01:55.219Z,1018.93
2023-05-06T03:02:55.238Z,1018.92
2023-05-06T03:03:55.246Z,1018.93
2023-05-06T03:04:55.190Z,1018.96
2023-05-06T03:05:55.184Z,1018.95
2023-05-06T03:06:55.159Z,1018.97
2023-05-06T03:07:55.130Z,1018.94
2023-05-06T03:08:55.126Z,1018.99
2023-05-06T03:09:55.136Z,1019.02
2023-05-06T03:10:55.130Z,1018.97
2023-05-06T03:11:55.103Z,1019.02
2023-05-06T03:12:55.167Z,1018.98
2023-05-06T03:13:55.070Z,1018.93
2023-05-06T03:14:55.072Z,1018.96
2023-05-06T03:15:55.031Z,1018.96
2023-05-06T03:16:55.108Z,1018.96
2023-05-06T03:17:55.024Z,1018.94
2023-05-06T03:18:55.014Z,1018.98
2023-05-06T03:19:54.992Z,1018.97
2023-05-06T03:20:54.957Z,1018.96
2023-05-06T03:21:54.960Z,1018.94
2023-05-06T03:22:54.941Z,1018.95
2023-05-06T03:23:54.941Z,1018.92
2023-05-06T03:24:54.934Z,1018.90
2023-05-06T03:25:54.932Z,1018.87
2023-05-06T03:26:54.894Z,1018.91
2023-05-06T03:27:54.816Z,1018.93
2023-05-06T03:28:54.833Z,1018.87
2023-05-06T03:29:54.819Z,1018.88
2023-05-06T03:30:54.784Z,1018.91
2023-05-06T03:31:54.890Z,1018.91
2023-05-06T03:32:54.886Z,1018.86
2023-05-06T03:33:54.761Z,1018.88
2023-05-06T03:34:54.734Z,1018.88
2023-05-06T03:35:54.717Z,1018.88
2023-05-06T03:36:54.704Z,1018.86
2023-05-06T03:37:54.711Z,1018.91
2023-05-06T03:38:54.663Z,1018.85
2023-05-06T03:39:54.677Z,1018.86
2023-05-06T03:40:54.639Z,1018.86
2023-05-06T03:41:54.636Z,1018.84
2023-05-06T03:42:54.633Z,1018.86
2023-05-06T03:43:54.608Z,1018.87
2023-05-06T03:44:54.624Z,1018.87
2023-05-06T03:45:54.611Z,1018.85
2023-05-06T03:46:54.560Z,1018.85
2023-05-06T03:47:54.610Z,1018.84
2023-05-06T03:48:54.591Z,1018.86
2023-05-06T03:49:54.556Z,1018.83
2023-05-06T03:50:54.518Z,1018.86
2023-05-06T03:51:54.502Z,1018.84
2023-05-06T03:52:54.515Z,1018.83
2023-05-06T03:53:55.030Z,1018.91
2023-05-06T03:54:54.457Z,1018.83
2023-05-06T03:55:54.449Z,1018.87
2023-05-06T03:56:54.450Z,1018.90
2023-05-06T03:57:54.471Z,1018.92
2023-05-06T03:58:54.412Z,1018.91
2023-05-06T03:59:54.403Z,1018.94
2023-05-06T04:00:54.399Z,1018.91
2023-05-06T04:01:54.388Z,1018.91
2023-05-06T04:02:54.446Z,1018.90
2023-05-06T04:03:54.381Z,1018.94
2023-05-06T04:04:54.333Z,1018.96
2023-05-06T04:05:54.335Z,1018.98
2023-05-06T04:06:54.360Z,1018.95
2023-05-06T04:07:54.284Z,1018.98
2023-05-06T04:08:54.282Z,1018.97
2023-05-06T04:09:54.289Z,1018.97
2023-05-06T04:10:54.288Z,1018.96
2023-05-06T04:11:54.607Z,1018.95
2023-05-06T04:12:54.259Z,1018.97
2023-05-06T04:13:54.223Z,1018.98
2023-05-06T04:14:54.202Z,1018.95
2023-05-06T04:15:54.310Z,1018.98
2023-05-06T04:16:54.201Z,1018.97
2023-05-06T04:17:54.160Z,1018.94
2023-05-06T04:18:54.151Z,1018.99
2023-05-06T04:19:54.137Z,1019.01
2023-05-06T04:20:54.142Z,1018.99
2023-05-06T04:21:54.124Z,1019.07
2023-05-06T04:22:54.100Z,1019.02
2023-05-06T04:23:54.070Z,1019.02
2023-05-06T04:24:54.066Z,1019.08
2023-05-06T04:25:54.089Z,1019.03
2023-05-06T04:26:54.039Z,1019.06
2023-05-06T04:27:54.035Z,1019.09
2023-05-06T04:28:54.016Z,1019.08
2023-05-06T04:29:54.009Z,1019.05
2023-05-06T04:30:54.001Z,1019.06
2023-05-06T04:31:54.174Z,1019.06
2023-05-06T04:32:53.992Z,1019.01
2023-05-06T04:33:53.954Z,1019.05
2023-05-06T04:34:53.978Z,1019.10
2023-05-06T04:35:54.000Z,1019.06
2023-05-06T04:36:53.911Z,1019.10
2023-05-06T04:37:53.911Z,1019.11
2023-05-06T04:38:53.883Z,1019.09
2023-05-06T04:39:53.888Z,1019.09
2023-05-06T04:40:53.868Z,1019.10
2023-05-06T04:41:53.833Z,1019.11
2023-05-06T04:42:53.850Z,1019.11
2023-05-06T04:43:53.806Z,1019.14
2023-05-06T04:44:53.822Z,1019.17
2023-05-06T04:45:53.842Z,1019.16
2023-05-06T04:46:53.776Z,1019.17
2023-05-06T04:47:53.780Z,1019.17
2023-05-06T04:48:53.764Z,1019.13
2023-05-06T04:49:53.758Z,1019.13
2023-05-06T04:50:53.745Z,1019.17
2023-05-06T04:51:53.718Z,1019.16
2023-05-06T04:52:53.697Z,1019.12
2023-05-06T04:53:53.692Z,1019.20
2023-05-06T04:54:53.704Z,1019.23
2023-05-06T04:55:53.660Z,1019.25
2023-05-06T04:56:53.649Z,1019.19
2023-05-06T04:57:53.637Z,1019.25
2023-05-06T04:58:53.638Z,1019.21
2023-05-06T04:59:53.600Z,1019.21
2023-05-06T05:00:53.652Z,1019.20
2023-05-06T05:01:53.576Z,1019.21
2023-05-06T05:02:53.640Z,1019.23
2023-05-06T05:03:53.572Z,1019.25
2023-05-06T05:04:53.555Z,1019.22
2023-05-06T05:05:53.538Z,1019.20
2023-05-06T05:06:53.518Z,1019.20
2023-05-06T05:07:53.526Z,1019.22
2023-05-06T05:08:55.240Z,1019.21
2023-05-06T05:09:53.466Z,1019.20
2023-05-06T05:10:53.471Z,1019.21
2023-05-06T05:11:53.450Z,1019.23
2023-05-06T05:12:53.527Z,1019.25
2023-05-06T05:13:55.384Z,1019.25
2023-05-06T05:14:53.411Z,1019.30
2023-05-06T05:15:53.386Z,1019.26
2023-05-06T05:16:53.449Z,1019.26
2023-05-06T05:17:53.393Z,1019.27
2023-05-06T05:18:53.373Z,1019.26
2023-05-06T05:19:53.354Z,1019.33
2023-05-06T05:20:53.330Z,1019.26
2023-05-06T05:21:53.313Z,1019.28
2023-05-06T05:22:53.320Z,1019.23
2023-05-06T05:23:53.311Z,1019.30
2023-05-06T05:24:53.286Z,1019.27
2023-05-06T05:25:53.251Z,1019.28
2023-05-06T05:26:53.255Z,1019.30
2023-05-06T05:27:53.272Z,1019.26
2023-05-06T05:28:53.243Z,1019.25
2023-05-06T05:29:53.211Z,1019.29
2023-05-06T05:30:53.293Z,1019.32
2023-05-06T05:31:53.193Z,1019.30
2023-05-06T05:32:53.269Z,1019.36
2023-05-06T05:33:53.220Z,1019.35
2023-05-06T05:34:53.178Z,1019.33
2023-05-06T05:35:53.134Z,1019.37
2023-05-06T05:36:53.145Z,1019.38
2023-05-06T05:37:53.111Z,1019.38
2023-05-06T05:38:53.086Z,1019.39
2023-05-06T05:39:53.069Z,1019.36
2023-05-06T05:40:53.088Z,1019.42
2023-05-06T05:41:53.085Z,1019.41
2023-05-06T05:42:53.041Z,1019.41
2023-05-06T05:43:53.009Z,1019.47
2023-05-06T05:44:53.000Z,1019.47
2023-05-06T05:45:53.035Z,1019.50
2023-05-06T05:46:53.027Z,1019.48
2023-05-06T05:47:53.037Z,1019.49
2023-05-06T05:48:52.994Z,1019.52
2023-05-06T05:49:52.956Z,1019.51
2023-05-06T05:50:52.965Z,1019.52
2023-05-06T05:51:52.922Z,1019.53
2023-05-06T05:52:52.902Z,1019.56
2023-05-06T05:53:52.872Z,1019.56
2023-05-06T05:54:52.894Z,1019.56
2023-05-06T05:55:53.258Z,1019.61
2023-05-06T05:56:52.858Z,1019.57
2023-05-06T05:57:52.830Z,1019.55
2023-05-06T05:58:52.817Z,1019.54
2023-05-06T05:59:52.836Z,1019.55
2023-05-06T06:00:52.796Z,1019.50
2023-05-06T06:01:52.789Z,1019.56
2023-05-06T06:02:52.819Z,1019.55
2023-05-06T06:03:52.924Z,1019.58
2023-05-06T06:04:52.919Z,1019.56
2023-05-06T06:05:52.722Z,1019.55
2023-05-06T06:06:52.723Z,1019.56
2023-05-06T06:07:52.690Z,1019.52
2023-05-06T06:08:52.727Z,1019.51
2023-05-06T06:09:52.658Z,1019.54
2023-05-06T06:10:52.666Z,1019.53
2023-05-06T06:11:52.649Z,1019.53
2023-05-06T06:12:52.727Z,1019.56
2023-05-06T06:13:52.663Z,1019.54
2023-05-06T06:14:52.634Z,1019.51
2023-05-06T06:15:52.748Z,1019.58
2023-05-06T06:16:52.580Z,1019.54
2023-05-06T06:17:52.577Z,1019.51
2023-05-06T06:18:52.546Z,1019.54
2023-05-06T06:19:52.579Z,1019.55
2023-05-06T06:22:08.602Z,1019.57
2023-05-06T06:23:09.584Z,1019.57
2023-05-06T06:24:09.552Z,1019.57
2023-05-06T06:25:09.741Z,1019.61
2023-05-06T06:26:12.114Z,1019.60
2023-05-06T06:27:09.521Z,1019.59
2023-05-06T06:28:09.503Z,1019.54
2023-05-06T06:29:09.501Z,1019.60
2023-05-06T06:30:09.542Z,1019.63
2023-05-06T06:31:09.476Z,1019.56
2023-05-06T06:32:09.579Z,1019.59
2023-05-06T06:33:09.467Z,1019.57
2023-05-06T06:34:09.443Z,1019.54
2023-05-06T06:35:09.649Z,1019.52
2023-05-06T06:36:09.413Z,1019.56
2023-05-06T06:37:09.414Z,1019.53
2023-05-06T06:38:09.388Z,1019.56
2023-05-06T06:39:09.357Z,1019.59
2023-05-06T06:40:09.361Z,1019.60
2023-05-06T06:41:09.333Z,1019.61
2023-05-06T06:42:09.357Z,1019.64
2023-05-06T06:43:09.297Z,1019.63
2023-05-06T06:44:09.306Z,1019.61
2023-05-06T06:45:09.430Z,1019.61
2023-05-06T06:46:09.305Z,1019.60
2023-05-06T06:47:09.272Z,1019.57
2023-05-06T06:48:09.270Z,1019.64
2023-05-06T06:49:09.223Z,1019.62
2023-05-06T06:50:09.208Z,1019.58
2023-05-06T06:51:09.216Z,1019.70
2023-05-06T06:52:09.181Z,1019.65
2023-05-06T06:53:09.169Z,1019.64
2023-05-06T06:54:09.160Z,1019.61
2023-05-06T06:55:09.266Z,1019.57
2023-05-06T06:56:09.152Z,1019.59
2023-05-06T06:57:09.125Z,1019.62
2023-05-06T06:58:09.145Z,1019.62
2023-05-06T06:59:09.108Z,1019.62
2023-05-06T07:00:09.088Z,1019.58
2023-05-06T07:01:09.084Z,1019.58
2023-05-06T07:02:09.063Z,1019.57
2023-05-06T07:03:09.089Z,1019.56
2023-05-06T07:04:09.061Z,1019.59
2023-05-06T07:05:09.196Z,1019.63
2023-05-06T07:06:09.037Z,1019.61
2023-05-06T07:07:08.980Z,1019.62
2023-05-06T07:08:08.991Z,1019.66
2023-05-06T07:09:08.977Z,1019.64
2023-05-06T07:10:08.951Z,1019.70
2023-05-06T07:11:08.932Z,1019.73
2023-05-06T07:12:08.933Z,1019.76
2023-05-06T07:13:08.965Z,1019.79
2023-05-06T07:14:08.900Z,1019.77
2023-05-06T07:15:09.363Z,1019.76
2023-05-06T07:16:08.874Z,1019.75
2023-05-06T07:17:08.883Z,1019.80
2023-05-06T07:18:08.918Z,1019.75
2023-05-06T07:19:08.825Z,1019.68
2023-05-06T07:20:08.855Z,1019.72
2023-05-06T07:21:08.813Z,1019.75
2023-05-06T07:22:08.820Z,1019.74
2023-05-06T07:23:08.779Z,1019.76
2023-05-06T07:24:08.769Z,1019.74
2023-05-06T07:25:09.430Z,1019.77
2023-05-06T07:26:08.745Z,1019.70
2023-05-06T07:27:08.719Z,1019.72
2023-05-06T07:28:08.720Z,1019.74
2023-05-06T07:29:08.713Z,1019.77
2023-05-06T07:30:08.679Z,1019.80
2023-05-06T07:31:08.707Z,1019.77
2023-05-06T07:32:08.674Z,1019.77
2023-05-06T07:33:08.642Z,1019.79
2023-05-06T07:34:08.633Z,1019.77
2023-05-06T07:35:08.831Z,1019.77
2023-05-06T07:36:08.621Z,1019.80
2023-05-06T07:37:08.614Z,1019.71
2023-05-06T07:38:08.576Z,1019.76
2023-05-06T07:39:08.582Z,1019.77
2023-05-06T07:40:08.585Z,1019.72
2023-05-06T07:41:08.539Z,1019.77
2023-05-06T07:42:08.540Z,1019.76
2023-05-06T07:43:08.508Z,1019.72
2023-05-06T07:44:08.534Z,1019.69
2023-05-06T07:45:08.606Z,1019.73
2023-05-06T07:46:08.484Z,1019.75
2023-05-06T07:47:08.504Z,1019.69
2023-05-06T07:48:08.499Z,1019.73
2023-05-06T07:49:08.449Z,1019.72
2023-05-06T07:50:08.436Z,1019.73
2023-05-06T07:51:08.397Z,1019.75
2023-05-06T07:52:08.398Z,1019.71
2023-05-06T07:53:08.401Z,1019.70
2023-05-06T07:54:08.394Z,1019.72
2023-05-06T07:55:08.702Z,1019.71
2023-05-06T07:56:08.340Z,1019.65
2023-05-06T07:57:08.418Z,1019.67
2023-05-06T07:58:08.312Z,1019.69
2023-05-06T07:59:08.300Z,1019.69
2023-05-06T08:00:08.333Z,1019.63
2023-05-06T08:01:08.276Z,1019.68
2023-05-06T08:02:08.291Z,1019.66
2023-05-06T08:03:08.357Z,1019.64
2023-05-06T08:04:08.370Z,1019.62
2023-05-06T08:05:08.335Z,1019.65
2023-05-06T08:06:08.199Z,1019.68
2023-05-06T08:07:08.194Z,1019.64
2023-05-06T08:08:08.218Z,1019.67
2023-05-06T08:09:08.156Z,1019.66
2023-05-06T08:10:08.181Z,1019.62
2023-05-06T08:11:08.130Z,1019.67
2023-05-06T08:12:08.149Z,1019.62
2023-05-06T08:13:08.155Z,1019.60
2023-05-06T08:14:08.100Z,1019.60
2023-05-06T08:15:08.249Z,1019.56
2023-05-06T08:16:08.220Z,1019.58
2023-05-06T08:17:08.203Z,1019.58
2023-05-06T08:18:20.862Z,1019.61
2023-05-06T08:19:08.051Z,1019.63
2023-05-06T08:20:08.023Z,1019.57
2023-05-06T08:21:08.008Z,1019.60
2023-05-06T08:22:08.008Z,1019.63
2023-05-06T08:23:07.987Z,1019.62
2023-05-06T08:24:07.992Z,1019.68
2023-05-06T08:25:08.090Z,1019.60
2023-05-06T08:26:07.955Z,1019.63
2023-05-06T08:27:07.939Z,1019.69
2023-05-06T08:28:07.959Z,1019.71
2023-05-06T08:29:07.920Z,1019.72
2023-05-06T08:30:07.901Z,1019.69
2023-05-06T08:31:07.872Z,1019.67
2023-05-06T08:32:07.946Z,1019.65
2023-05-06T08:33:07.938Z,1019.66
2023-05-06T08:34:07.853Z,1019.63
2023-05-06T08:35:07.882Z,1019.63
2023-05-06T08:36:07.824Z,1019.64
2023-05-06T08:37:07.794Z,1019.60
2023-05-06T08:38:07.794Z,1019.62
2023-05-06T08:39:07.759Z,1019.62
2023-05-06T08:40:07.756Z,1019.59
2023-05-06T08:41:07.753Z,1019.64
2023-05-06T08:42:07.744Z,1019.60
2023-05-06T08:43:07.710Z,1019.60
2023-05-06T08:44:07.774Z,1019.55
2023-05-06T08:45:07.780Z,1019.58
2023-05-06T08:46:07.734Z,1019.59
2023-05-06T08:47:07.681Z,1019.54
2023-05-06T08:48:07.652Z,1019.57
2023-05-06T08:49:07.637Z,1019.60
2023-05-06T08:50:07.638Z,1019.59
2023-05-06T08:51:07.598Z,1019.58
2023-05-06T08:52:07.645Z,1019.58
2023-05-06T08:53:07.591Z,1019.65
2023-05-06T08:54:07.566Z,1019.65
2023-05-06T08:55:07.619Z,1019.62
2023-05-06T08:56:07.540Z,1019.67
2023-05-06T08:57:07.914Z,1019.64
2023-05-06T08:58:07.525Z,1019.66
2023-05-06T08:59:07.540Z,1019.70
2023-05-06T09:00:07.528Z,1019.64
2023-05-06T09:01:07.519Z,1019.65
2023-05-06T09:02:07.496Z,1019.57
2023-05-06T09:03:07.578Z,1019.59
2023-05-06T09:04:07.470Z,1019.60
2023-05-06T09:05:07.457Z,1019.65
2023-05-06T09:06:07.421Z,1019.62
2023-05-06T09:07:07.384Z,1019.58
2023-05-06T09:08:07.396Z,1019.63
2023-05-06T09:09:07.370Z,1019.62
2023-05-06T09:10:07.402Z,1019.58
2023-05-06T09:11:07.362Z,1019.63
2023-05-06T09:12:07.339Z,1019.58
2023-05-06T09:13:07.329Z,1019.64
2023-05-06T09:14:07.323Z,1019.60
2023-05-06T09:15:07.321Z,1019.59
2023-05-06T09:16:07.300Z,1019.61
2023-05-06T09:17:07.311Z,1019.57
2023-05-06T09:18:07.260Z,1019.60
2023-05-06T09:19:07.233Z,1019.62
2023-05-06T09:20:07.239Z,1019.62
2023-05-06T09:21:07.247Z,1019.58
2023-05-06T09:22:07.192Z,1019.60
2023-05-06T09:23:07.205Z,1019.64
2023-05-06T09:24:07.160Z,1019.60
2023-05-06T09:25:07.258Z,1019.63
2023-05-06T09:26:07.205Z,1019.59
2023-05-06T09:27:08.429Z,1019.60
2023-05-06T09:28:07.119Z,1019.59
2023-05-06T09:29:07.115Z,1019.56
2023-05-06T09:30:07.132Z,1019.59
2023-05-06T09:31:07.258Z,1019.58
2023-05-06T09:32:07.081Z,1019.56
2023-05-06T09:33:07.064Z,1019.60
2023-05-06T09:34:07.034Z,1019.60
2023-05-06T09:35:07.061Z,1019.58
2023-05-06T09:36:07.018Z,1019.54
2023-05-06T09:37:07.007Z,1019.58
2023-05-06T09:38:07.384Z,1019.56
2023-05-06T09:39:07.004Z,1019.55
2023-05-06T09:40:06.989Z,1019.53
2023-05-06T09:41:06.977Z,1019.59
2023-05-06T09:42:06.961Z,1019.58
2023-05-06T09:43:06.976Z,1019.60
2023-05-06T09:44:06.961Z,1019.61
2023-05-06T09:45:06.944Z,1019.62
2023-05-06T09:46:07.023Z,1019.61
2023-05-06T09:47:06.932Z,1019.55
2023-05-06T09:48:06.938Z,1019.60
2023-05-06T09:49:06.896Z,1019.58
2023-05-06T09:50:06.837Z,1019.57
2023-05-06T09:51:06.851Z,1019.62
2023-05-06T09:52:06.829Z,1019.57
2023-05-06T09:53:06.812Z,1019.56
2023-05-06T09:54:06.809Z,1019.57
2023-05-06T09:55:06.768Z,1019.57
2023-05-06T09:56:06.769Z,1019.54
2023-05-06T09:57:06.744Z,1019.55
2023-05-06T09:58:06.727Z,1019.55
2023-05-06T09:59:06.719Z,1019.52
2023-05-06T10:00:06.730Z,1019.50
2023-05-06T10:01:06.718Z,1019.51
2023-05-06T10:02:06.722Z,1019.48
2023-05-06T10:03:06.818Z,1019.48
2023-05-06T10:04:06.901Z,1019.50
2023-05-06T10:05:06.732Z,1019.47
2023-05-06T10:06:06.620Z,1019.46
2023-05-06T10:07:06.661Z,1019.41
2023-05-06T10:08:06.612Z,1019.42
2023-05-06T10:09:06.568Z,1019.39
2023-05-06T10:10:06.585Z,1019.41
2023-05-06T10:11:06.547Z,1019.46
2023-05-06T10:12:06.538Z,1019.42
2023-05-06T10:13:06.605Z,1019.42
2023-05-06T10:14:06.524Z,1019.42
2023-05-06T10:15:06.519Z,1019.41
2023-05-06T10:16:06.532Z,1019.37
2023-05-06T10:17:06.473Z,1019.36
2023-05-06T10:18:06.557Z,1019.29
2023-05-06T10:19:06.583Z,1019.29
2023-05-06T10:20:06.431Z,1019.31
2023-05-06T10:21:06.426Z,1019.27
2023-05-06T10:22:06.453Z,1019.31
2023-05-06T10:23:06.389Z,1019.24
2023-05-06T10:24:06.391Z,1019.26
2023-05-06T10:25:06.380Z,1019.22
2023-05-06T10:26:06.350Z,1019.25
2023-05-06T10:27:06.355Z,1019.17
2023-05-06T10:28:06.794Z,1019.18
2023-05-06T10:29:06.332Z,1019.14
2023-05-06T10:30:06.292Z,1019.17
2023-05-06T10:31:06.286Z,1019.14
2023-05-06T10:32:06.392Z,1019.15
2023-05-06T10:33:06.297Z,1019.11
2023-05-06T10:34:06.238Z,1019.08
2023-05-06T10:35:06.228Z,1019.06
2023-05-06T10:36:06.221Z,1019.02
2023-05-06T10:37:06.212Z,1019.02
2023-05-06T10:38:06.186Z,1018.98
2023-05-06T10:39:06.176Z,1019.00
2023-05-06T10:40:06.155Z,1019.01
2023-05-06T10:41:06.161Z,1018.99
2023-05-06T10:42:06.144Z,1018.96
2023-05-06T10:43:06.123Z,1018.92
2023-05-06T10:44:06.164Z,1018.94
2023-05-06T10:45:06.112Z,1018.90
2023-05-06T10:46:06.196Z,1018.87
2023-05-06T10:47:06.088Z,1018.93
2023-05-06T10:48:06.098Z,1018.87
2023-05-06T10:49:06.110Z,1018.90
2023-05-06T10:50:06.039Z,1018.88
2023-05-06T10:51:06.013Z,1018.89
2023-05-06T10:52:06.034Z,1018.86
2023-05-06T10:53:05.998Z,1018.85
2023-05-06T10:54:05.963Z,1018.85
2023-05-06T10:55:06.034Z,1018.79
2023-05-06T10:56:05.982Z,1018.84
2023-05-06T10:57:05.940Z,1018.83
2023-05-06T10:58:05.924Z,1018.85
2023-05-06T10:59:05.923Z,1018.81
2023-05-06T11:00:05.940Z,1018.77
2023-05-06T11:01:05.953Z,1018.76
2023-05-06T11:02:05.913Z,1018.76
2023-05-06T11:03:05.961Z,1018.77
2023-05-06T11:04:05.835Z,1018.78
2023-05-06T11:05:05.864Z,1018.75
2023-05-06T11:06:05.813Z,1018.76
2023-05-06T11:07:05.810Z,1018.74
2023-05-06T11:08:05.793Z,1018.75
2023-05-06T11:09:05.819Z,1018.75
2023-05-06T11:10:05.789Z,1018.73
2023-05-06T11:11:05.759Z,1018.75
2023-05-06T11:12:05.767Z,1018.73
2023-05-06T11:13:05.795Z,1018.75
2023-05-06T11:14:05.721Z,1018.75
2023-05-06T11:15:05.728Z,1018.69
2023-05-06T11:16:05.689Z,1018.71
2023-05-06T11:17:05.824Z,1018.70
2023-05-06T11:18:05.728Z,1018.66
2023-05-06T11:19:05.672Z,1018.66
2023-05-06T11:20:05.641Z,1018.64
2023-05-06T11:21:05.656Z,1018.67
2023-05-06T11:22:05.615Z,1018.68
2023-05-06T11:23:05.605Z,1018.66
2023-05-06T11:24:05.592Z,1018.65
2023-05-06T11:25:05.588Z,1018.64
2023-05-06T11:26:05.559Z,1018.59
2023-05-06T11:27:05.541Z,1018.65
2023-05-06T11:28:05.547Z,1018.61
2023-05-06T11:29:05.523Z,1018.64
2023-05-06T11:30:05.528Z,1018.57
2023-05-06T11:31:05.607Z,1018.59
2023-05-06T11:32:05.495Z,1018.63
2023-05-06T11:33:05.928Z,1018.59
2023-05-06T11:34:05.455Z,1018.57
2023-05-06T11:35:05.471Z,1018.52
2023-05-06T11:36:05.462Z,1018.60
2023-05-06T11:37:05.415Z,1018.59
2023-05-06T11:38:05.435Z,1018.56
2023-05-06T11:39:05.388Z,1018.55
2023-05-06T11:40:05.392Z,1018.56
2023-05-06T11:41:05.374Z,1018.59
2023-05-06T11:42:05.345Z,1018.56
2023-05-06T11:43:05.357Z,1018.54
2023-05-06T11:44:05.321Z,1018.56
2023-05-06T11:45:05.315Z,1018.57
2023-05-06T11:46:05.363Z,1018.57
2023-05-06T11:47:05.295Z,1018.55
2023-05-06T11:48:05.312Z,1018.58
2023-05-06T11:49:05.274Z,1018.57
2023-05-06T11:50:05.241Z,1018.57
2023-05-06T11:51:05.239Z,1018.53
2023-05-06T11:52:05.248Z,1018.55
2023-05-06T11:53:05.217Z,1018.55
2023-05-06T11:54:05.195Z,1018.47
2023-05-06T11:55:05.175Z,1018.46
2023-05-06T11:56:05.165Z,1018.45
2023-05-06T11:57:05.176Z,1018.38
2023-05-06T11:58:05.140Z,1018.44
2023-05-06T11:59:05.124Z,1018.42
2023-05-06T12:00:05.101Z,1018.40
2023-05-06T12:01:05.112Z,1018.38
2023-05-06T12:02:05.097Z,1018.40
2023-05-06T12:03:05.211Z,1018.40
2023-05-06T12:04:05.212Z,1018.40
2023-05-06T12:05:05.050Z,1018.44
2023-05-06T12:06:05.038Z,1018.39
2023-05-06T12:07:05.066Z,1018.38
2023-05-06T12:08:08.468Z,1018.38